createdAt,value
2019-04-05T00:02:14.353Z,67.61
2019-04-05T00:04:40.736Z,67.78
2019-04-05T00:07:06.964Z,67.77
2019-04-05T00:09:33.274Z,68.15
2019-04-05T00:11:59.598Z,68.72
2019-04-05T00:14:25.906Z,68.97
2019-04-05T00:16:52.215Z,68.88
2019-04-05T00:19:18.570Z,69.05
2019-04-05T00:21:44.897Z,69.12
2019-04-05T00:24:11.225Z,69.03
2019-04-05T00:26:37.591Z,68.83
2019-04-05T00:29:03.899Z,69.16
2019-04-05T00:31:30.207Z,69.49
2019-04-05T00:33:56.546Z,69.90
2019-04-05T00:36:22.870Z,70.03
2019-04-05T00:38:49.189Z,70.05
2019-04-05T00:41:15.510Z,70.13
2019-04-05T00:43:41.812Z,69.87
2019-04-05T00:46:08.139Z,69.95
2019-04-05T00:48:34.465Z,70.39
2019-04-05T00:51:00.772Z,70.54
2019-04-05T00:53:27.097Z,71.38
2019-04-05T00:55:53.406Z,71.14
2019-04-05T00:58:19.777Z,71.76
2019-04-05T01:00:46.099Z,71.31
2019-04-05T01:03:13.305Z,71.31
2019-04-05T01:05:38.975Z,71.62
2019-04-05T01:08:05.279Z,71.55
2019-04-05T01:10:31.587Z,72.01
2019-04-05T01:12:57.918Z,71.82
2019-04-05T01:15:24.244Z,72.19
2019-04-05T01:17:50.635Z,72.02
2019-04-05T01:20:16.977Z,72.52
2019-04-05T01:22:43.299Z,73.01
2019-04-05T01:25:09.611Z,72.57
2019-04-05T01:27:35.926Z,72.63
2019-04-05T01:30:02.232Z,72.82
2019-04-05T01:32:28.558Z,73.09
2019-04-05T01:34:54.879Z,72.61
2019-04-05T01:37:21.211Z,72.92
2019-04-05T01:39:47.517Z,72.76
2019-04-05T01:42:13.828Z,73.38
2019-04-05T01:44:40.183Z,73.41
2019-04-05T01:47:06.513Z,73.74
2019-04-05T01:49:32.821Z,73.43
2019-04-05T01:51:59.131Z,73.56
2019-04-05T01:54:25.479Z,73.91
2019-04-05T01:56:51.777Z,73.96
2019-04-05T01:59:18.096Z,73.90
2019-04-05T02:01:44.413Z,74.07
2019-04-05T02:04:10.745Z,74.15
2019-04-05T02:06:37.075Z,74.17
2019-04-05T02:09:03.404Z,74.16
2019-04-05T02:11:29.708Z,74.27
2019-04-05T02:13:56.061Z,74.67
2019-04-05T02:16:22.360Z,74.45
2019-04-05T02:18:48.684Z,74.70
2019-04-05T02:21:14.995Z,74.62
2019-04-05T02:23:41.356Z,75.03
2019-04-05T02:26:07.674Z,75.33
2019-04-05T02:28:34.000Z,75.59
2019-04-05T02:31:00.312Z,75.60
2019-04-05T02:33:26.651Z,75.44
2019-04-05T02:35:52.950Z,75.74
2019-04-05T02:38:19.281Z,75.88
2019-04-05T02:40:45.605Z,76.64
2019-04-05T02:43:11.922Z,75.56
2019-04-05T02:45:38.251Z,73.27
2019-04-05T02:48:04.590Z,73.84
2019-04-05T02:50:30.908Z,74.42
2019-04-05T02:52:57.234Z,74.87
2019-04-05T02:55:23.571Z,75.50
2019-04-05T02:57:49.889Z,75.41
2019-04-05T03:00:16.214Z,75.64
2019-04-05T03:02:42.540Z,76.22
2019-04-05T03:05:08.882Z,76.80
2019-04-05T03:07:35.221Z,76.14
2019-04-05T03:10:01.543Z,76.54
2019-04-05T03:12:27.841Z,76.14
2019-04-05T03:14:54.169Z,76.30
2019-04-05T03:17:20.477Z,76.64
2019-04-05T03:19:46.801Z,76.78
2019-04-05T03:22:13.214Z,77.94
2019-04-05T03:24:39.512Z,78.26
2019-04-05T03:27:05.846Z,77.96
2019-04-05T03:29:32.183Z,78.93
2019-04-05T03:31:58.508Z,79.28
2019-04-05T03:34:24.864Z,79.18
2019-04-05T03:36:51.949Z,79.70
2019-04-05T03:39:17.489Z,79.84
2019-04-05T03:41:43.834Z,79.88
2019-04-05T03:44:10.165Z,80.11
2019-04-05T03:46:36.461Z,80.37
2019-04-05T03:49:02.777Z,79.63
2019-04-05T03:51:29.106Z,79.69
2019-04-05T03:53:55.436Z,80.45
2019-04-05T03:56:21.784Z,80.67
2019-04-05T03:58:48.089Z,81.00
2019-04-05T04:01:14.416Z,80.79
2019-04-05T04:03:40.737Z,80.99
2019-04-05T04:06:07.097Z,81.09
2019-04-05T04:08:33.385Z,81.34
2019-04-05T04:10:59.690Z,81.37
2019-04-05T04:13:26.004Z,81.43
2019-04-05T04:15:52.307Z,81.51
2019-04-05T04:18:18.637Z,80.66
2019-04-05T04:20:44.961Z,80.40
2019-04-05T04:23:11.271Z,80.24
2019-04-05T04:25:37.591Z,80.77
2019-04-05T04:28:03.910Z,79.43
2019-04-05T04:30:30.273Z,79.57
2019-04-05T04:32:56.619Z,78.29
2019-04-05T04:35:22.924Z,77.51
2019-04-05T04:37:49.233Z,76.56
2019-04-05T04:40:15.565Z,74.93
2019-04-05T04:42:41.893Z,74.11
2019-04-05T04:45:12.647Z,73.77
2019-04-05T04:47:34.594Z,73.03
2019-04-05T04:50:00.896Z,72.89
2019-04-05T04:52:27.221Z,73.32
2019-04-05T04:54:53.552Z,72.59
2019-04-05T04:57:19.848Z,72.56
2019-04-05T04:59:46.156Z,72.26
2019-04-05T05:02:12.480Z,71.19
2019-04-05T05:04:38.784Z,71.09
2019-04-05T05:07:05.141Z,69.79
2019-04-05T05:09:31.506Z,70.23
2019-04-05T05:11:57.809Z,70.33
2019-04-05T05:14:24.173Z,69.50
2019-04-05T05:16:50.447Z,69.21
2019-04-05T05:19:16.737Z,69.71
2019-04-05T05:21:43.068Z,69.11
2019-04-05T05:24:09.438Z,69.03
2019-04-05T05:26:35.692Z,66.83
2019-04-05T05:29:02.023Z,67.12
2019-04-05T05:31:28.348Z,67.77
2019-04-05T05:33:54.771Z,67.41
2019-04-05T05:36:21.096Z,67.00
2019-04-05T05:38:47.430Z,65.41
2019-04-05T05:41:13.760Z,65.01
2019-04-05T05:48:50.604Z,66.44
2019-04-05T05:51:16.908Z,65.45
2019-04-05T05:53:43.239Z,64.96
2019-04-05T05:56:09.564Z,64.36
2019-04-05T05:58:35.914Z,63.87
2019-04-05T06:01:02.230Z,63.73
2019-04-05T06:03:28.556Z,63.65
2019-04-05T06:08:21.200Z,64.54
2019-04-05T06:10:47.509Z,64.26
2019-04-05T06:13:13.832Z,64.48
2019-04-05T06:15:40.175Z,64.12
2019-04-05T06:18:06.489Z,62.94
2019-04-05T06:20:32.813Z,62.70
2019-04-05T06:22:59.141Z,62.41
2019-04-05T06:25:25.452Z,61.07
2019-04-05T06:27:51.769Z,61.45
2019-04-05T06:30:18.092Z,61.80
2019-04-05T06:32:44.401Z,60.69
2019-04-05T06:35:10.778Z,60.26
2019-04-05T06:37:37.101Z,59.86
2019-04-05T06:40:03.431Z,59.02
2019-04-05T06:42:29.754Z,59.38
2019-04-05T06:44:56.057Z,59.56
2019-04-05T06:47:22.392Z,59.62
2019-04-05T06:49:48.698Z,59.02
2019-04-05T06:52:15.029Z,56.90
2019-04-05T06:54:41.342Z,57.16
2019-04-05T06:57:07.656Z,57.62
2019-04-05T06:59:33.971Z,55.95
2019-04-05T07:02:00.301Z,55.00
2019-04-05T07:04:26.638Z,55.27
2019-04-05T07:06:52.943Z,54.72
2019-04-05T07:09:19.270Z,54.41
2019-04-05T07:11:45.594Z,54.04
2019-04-05T07:14:11.929Z,54.18
2019-04-05T07:16:38.246Z,54.60
2019-04-05T07:19:04.561Z,55.40
2019-04-05T07:21:30.902Z,54.80
2019-04-05T07:23:57.240Z,54.57
2019-04-05T07:26:23.551Z,54.31
2019-04-05T07:28:49.879Z,54.04
2019-04-05T07:31:16.209Z,53.13
2019-04-05T07:33:42.568Z,53.07
2019-04-05T07:36:08.890Z,53.51
2019-04-05T07:38:35.199Z,54.09
2019-04-05T07:41:01.509Z,53.64
2019-04-05T07:43:27.841Z,52.87
2019-04-05T07:45:54.170Z,53.16
2019-04-05T07:48:20.498Z,53.90
2019-04-05T07:50:46.833Z,54.01
2019-04-05T07:53:13.159Z,54.36
2019-04-05T07:55:39.473Z,56.02
2019-04-05T07:58:05.822Z,57.24
2019-04-05T08:00:32.176Z,57.73
2019-04-05T08:02:58.495Z,58.22
2019-04-05T08:05:24.833Z,58.65
2019-04-05T08:07:51.161Z,58.46
2019-04-05T08:10:18.546Z,58.23
2019-04-05T08:12:44.865Z,57.02
2019-04-05T08:15:11.198Z,56.34
2019-04-05T08:17:37.501Z,55.99
2019-04-05T08:20:03.811Z,56.22
2019-04-05T08:22:32.327Z,56.08
2019-04-05T08:24:56.472Z,54.90
2019-04-05T08:27:22.827Z,54.39
2019-04-05T08:29:49.159Z,53.97
2019-04-05T08:32:15.474Z,53.50
2019-04-05T08:34:41.784Z,53.64
2019-04-05T08:37:08.113Z,53.60
2019-04-05T08:39:34.442Z,52.61
2019-04-05T08:42:00.750Z,51.65
2019-04-05T08:44:27.070Z,52.67
2019-04-05T08:46:53.370Z,52.57
2019-04-05T08:49:19.712Z,51.26
2019-04-05T08:51:46.077Z,51.26
2019-04-05T08:54:12.372Z,52.18
2019-04-05T08:56:38.803Z,51.79
2019-04-05T08:59:05.083Z,52.32
2019-04-05T09:01:31.638Z,51.96
2019-04-05T09:03:57.965Z,52.94
2019-04-05T09:06:24.309Z,54.08
2019-04-05T09:08:50.644Z,54.84
2019-04-05T09:11:16.983Z,54.41
2019-04-05T09:13:43.298Z,53.55
2019-04-05T09:16:11.765Z,52.64
2019-04-05T09:18:35.950Z,53.04
2019-04-05T09:21:02.276Z,53.90
2019-04-05T09:23:28.585Z,52.98
2019-04-05T09:25:54.918Z,52.65
2019-04-05T09:28:21.232Z,52.41
2019-04-05T09:30:47.551Z,51.47
2019-04-05T09:33:13.880Z,50.48
2019-04-05T09:35:40.206Z,51.40
2019-04-05T09:38:06.548Z,52.07
2019-04-05T09:40:32.878Z,52.08
2019-04-05T09:42:59.186Z,51.85
2019-04-05T09:45:25.528Z,52.34
2019-04-05T09:47:51.865Z,53.24
2019-04-05T09:50:18.223Z,53.81
2019-04-05T09:52:44.518Z,53.82
2019-04-05T09:55:10.847Z,53.41
2019-04-05T09:57:37.171Z,52.99
2019-04-05T10:00:03.523Z,52.89
2019-04-05T10:02:31.757Z,52.65
2019-04-05T10:04:56.163Z,53.47
2019-04-05T10:07:22.507Z,53.34
2019-04-05T10:09:50.440Z,53.02
2019-04-05T10:12:15.149Z,52.52
2019-04-05T10:14:41.474Z,52.98
2019-04-05T10:17:07.803Z,52.82
2019-04-05T10:19:34.108Z,53.26
2019-04-05T10:22:00.465Z,53.33
2019-04-05T10:24:26.777Z,52.75
2019-04-05T10:26:53.099Z,52.96
2019-04-05T10:29:19.705Z,52.87
2019-04-05T10:31:46.031Z,53.38
2019-04-05T10:34:12.357Z,54.08
2019-04-05T10:36:38.673Z,53.67
2019-04-05T10:39:04.978Z,53.47
2019-04-05T10:41:31.292Z,52.66
2019-04-05T10:43:58.505Z,52.45
2019-04-05T10:46:23.956Z,53.02
2019-04-05T10:48:50.283Z,53.43
2019-04-05T10:51:16.589Z,54.04
2019-04-05T10:53:42.929Z,53.81
2019-04-05T10:56:09.257Z,53.32
2019-04-05T10:58:35.567Z,53.85
2019-04-05T11:01:01.930Z,53.51
2019-04-05T11:03:28.260Z,52.85
2019-04-05T11:05:54.605Z,52.45
2019-04-05T11:08:20.918Z,51.51
2019-04-05T11:10:47.249Z,52.02
2019-04-05T11:13:13.568Z,51.84
2019-04-05T11:15:39.870Z,51.89
2019-04-05T11:18:06.199Z,51.24
2019-04-05T11:20:32.522Z,51.00
2019-04-05T11:25:34.111Z,50.61
2019-04-05T11:30:44.466Z,51.17
2019-04-05T11:33:10.897Z,51.26
2019-04-05T11:35:37.206Z,51.17
2019-04-05T11:38:03.540Z,51.47
2019-04-05T11:40:29.855Z,50.63
2019-04-05T11:42:56.194Z,50.53
2019-04-05T11:45:22.524Z,50.73
2019-04-05T11:47:48.867Z,50.97
2019-04-05T11:50:18.837Z,50.69
2019-04-05T11:52:50.995Z,50.32
2019-04-05T11:55:14.642Z,50.32
2019-04-05T11:57:44.296Z,50.16
2019-04-05T12:00:12.257Z,49.83
2019-04-05T12:08:25.206Z,48.25
2019-04-05T12:10:46.580Z,47.92
2019-04-05T12:13:14.870Z,48.35
2019-04-05T12:15:39.223Z,48.47
2019-04-05T12:18:07.530Z,48.12
2019-04-05T12:25:51.182Z,47.50
2019-04-05T12:28:17.545Z,47.38
2019-04-05T12:30:45.931Z,46.66
2019-04-05T12:33:14.267Z,46.88
2019-04-05T12:35:37.687Z,46.77
2019-04-05T12:38:02.838Z,46.95
2019-04-05T12:40:29.167Z,46.66
2019-04-05T12:42:55.473Z,46.64
2019-04-05T12:45:21.808Z,46.47
2019-04-05T12:47:48.134Z,46.38
2019-04-05T12:50:15.335Z,46.60
2019-04-05T12:52:40.772Z,46.71
2019-04-05T12:55:07.163Z,46.56
2019-04-05T12:57:33.495Z,45.97
2019-04-05T12:59:59.803Z,45.23
2019-04-05T13:02:33.278Z,45.57
2019-04-05T13:04:52.450Z,44.68
2019-04-05T13:07:22.485Z,44.43
2019-04-05T13:09:45.791Z,44.60
2019-04-05T13:12:11.477Z,44.67
2019-04-05T13:14:37.801Z,43.89
2019-04-05T13:17:04.148Z,43.72
2019-04-05T13:19:30.647Z,43.98
2019-04-05T13:21:56.793Z,43.13
2019-04-05T13:24:23.126Z,43.63
2019-04-05T13:26:49.450Z,43.62
2019-04-05T13:29:17.554Z,43.88
2019-04-05T13:31:42.104Z,43.96
2019-04-05T13:34:08.433Z,44.31
2019-04-05T13:36:34.787Z,44.07
2019-04-05T13:39:01.183Z,43.86
2019-04-05T13:41:27.478Z,43.70
2019-04-05T13:43:53.806Z,44.41
2019-04-05T13:46:22.250Z,45.01
2019-04-05T13:48:46.429Z,44.88
2019-04-05T13:51:13.104Z,44.69
2019-04-05T13:53:40.465Z,44.82
2019-04-05T13:56:05.398Z,44.83
2019-04-05T13:58:31.722Z,44.83
2019-04-05T14:00:58.025Z,44.77
2019-04-05T14:03:24.336Z,44.84
2019-04-05T14:05:54.038Z,44.95
2019-04-05T14:08:17.030Z,45.03
2019-04-05T14:10:43.354Z,45.05
2019-04-05T14:13:09.975Z,45.06
2019-04-05T14:15:36.081Z,43.95
2019-04-05T14:18:02.421Z,44.14
2019-04-05T14:20:28.758Z,44.01
2019-04-05T14:22:55.079Z,44.10
2019-04-05T14:25:21.411Z,43.38
2019-04-05T14:27:47.730Z,43.97
2019-04-05T14:30:14.044Z,44.70
2019-04-05T14:32:40.380Z,44.73
2019-04-05T14:35:07.973Z,44.08
2019-04-05T14:37:33.003Z,44.13
2019-04-05T14:39:59.312Z,44.20
2019-04-05T14:42:25.673Z,44.50
2019-04-05T14:44:52.003Z,44.14
2019-04-05T14:47:19.843Z,43.98
2019-04-05T14:49:44.672Z,43.89
2019-04-05T14:52:10.987Z,43.71
2019-04-05T14:54:37.393Z,43.25
2019-04-05T14:57:05.832Z,43.68
2019-04-05T14:59:32.699Z,43.63
2019-04-05T15:01:56.428Z,43.34
2019-04-05T15:04:22.748Z,43.41
2019-04-05T15:06:50.607Z,43.30
2019-04-05T15:09:15.406Z,43.11
2019-04-05T15:11:41.735Z,43.30
2019-04-05T15:14:08.053Z,43.07
2019-04-05T15:16:34.386Z,43.26
2019-04-05T15:19:00.730Z,43.27
2019-04-05T15:21:27.072Z,43.74
2019-04-05T15:23:53.385Z,43.75
2019-04-05T15:26:21.371Z,43.87
2019-04-05T15:28:46.020Z,44.00
2019-04-05T15:31:12.354Z,44.25
2019-04-05T15:33:38.654Z,44.45
2019-04-05T15:36:04.976Z,44.78
2019-04-05T15:38:31.667Z,44.68
2019-04-05T15:40:57.604Z,44.37
2019-04-05T15:43:23.954Z,44.38
2019-04-05T15:45:50.258Z,44.65
2019-04-05T15:48:16.580Z,45.16
2019-04-05T15:50:42.919Z,45.34
2019-04-05T15:53:09.224Z,45.19
2019-04-05T15:55:35.548Z,45.43
2019-04-05T15:58:03.711Z,45.59
2019-04-05T16:00:28.190Z,45.64
2019-04-05T16:02:54.507Z,45.81
2019-04-05T16:05:20.832Z,45.79
2019-04-05T16:07:47.159Z,46.03
2019-04-05T16:10:13.488Z,45.91
2019-04-05T16:12:39.801Z,46.35
2019-04-05T16:15:06.113Z,46.69
2019-04-05T16:17:32.447Z,46.91
2019-04-05T16:19:58.810Z,46.77
2019-04-05T16:22:31.317Z,47.16
2019-04-05T16:24:51.436Z,48.23
2019-04-05T16:27:17.744Z,48.95
2019-04-05T16:29:44.079Z,49.26
2019-04-05T16:32:10.410Z,49.67
2019-04-05T16:34:36.733Z,49.85
2019-04-05T16:37:03.059Z,50.30
2019-04-05T16:39:29.370Z,50.69
2019-04-05T16:41:55.715Z,50.77
2019-04-05T16:44:22.055Z,50.95
2019-04-05T16:46:48.400Z,51.35
2019-04-05T16:49:14.701Z,51.54
2019-04-05T16:51:41.033Z,51.69
2019-04-05T16:54:07.358Z,51.92
2019-04-05T16:56:33.689Z,52.00
2019-04-05T16:59:00.013Z,52.16
2019-04-05T17:01:27.516Z,52.38
2019-04-05T17:03:52.674Z,52.42
2019-04-05T17:06:19.000Z,52.43
2019-04-05T17:08:45.565Z,52.58
2019-04-05T17:11:11.636Z,52.74
2019-04-05T17:13:37.979Z,52.79
2019-04-05T17:16:04.329Z,52.90
2019-04-05T17:18:30.665Z,53.09
2019-04-05T17:20:56.995Z,53.20
2019-04-05T17:23:23.306Z,53.35
2019-04-05T17:25:49.614Z,53.33
2019-04-05T17:28:15.949Z,53.56
2019-04-05T17:30:42.305Z,53.70
2019-04-05T17:33:08.608Z,53.90
2019-04-05T17:35:34.938Z,54.04
2019-04-05T17:38:01.274Z,54.36
2019-04-05T17:40:27.638Z,54.33
2019-04-05T17:42:53.964Z,54.36
2019-04-05T17:45:20.269Z,54.63
2019-04-05T17:47:46.594Z,54.91
2019-04-05T17:50:12.924Z,54.91
2019-04-05T17:52:39.264Z,54.67
2019-04-05T17:55:05.602Z,54.67
2019-04-05T17:57:31.961Z,54.54
2019-04-05T17:59:58.287Z,54.64
2019-04-05T18:02:24.622Z,54.42
2019-04-05T18:04:50.929Z,54.42
2019-04-05T18:07:17.312Z,54.53
2019-04-05T18:09:43.642Z,54.43
2019-04-05T18:12:09.967Z,54.37
2019-04-05T18:14:36.297Z,54.30
2019-04-05T18:17:02.601Z,54.36
2019-04-05T18:19:28.930Z,54.10
2019-04-05T18:21:55.260Z,54.06
2019-04-05T18:24:21.579Z,54.11
2019-04-05T18:26:49.115Z,54.01
2019-04-05T18:29:14.234Z,54.03
2019-04-05T18:31:40.558Z,54.15
2019-04-05T18:34:06.867Z,54.14
2019-04-05T18:36:33.181Z,54.14
2019-04-05T18:38:59.494Z,53.88
2019-04-05T18:41:25.855Z,53.79
2019-04-05T18:43:52.175Z,53.59
2019-04-05T18:46:18.507Z,53.28
2019-04-05T18:48:44.818Z,53.20
2019-04-05T18:51:11.135Z,53.21
2019-04-05T18:53:38.199Z,53.43
2019-04-05T18:56:03.843Z,53.43
2019-04-05T18:58:30.191Z,53.49
2019-04-05T19:00:56.481Z,53.59
2019-04-05T19:03:22.812Z,53.61
2019-04-05T19:05:49.143Z,53.78
2019-04-05T19:08:15.494Z,53.92
2019-04-05T19:10:41.857Z,54.16
2019-04-05T19:13:08.131Z,54.01
2019-04-05T19:15:34.474Z,54.21
2019-04-05T19:18:00.805Z,54.18
2019-04-05T19:20:27.135Z,54.10
2019-04-05T19:22:53.465Z,54.16
2019-04-05T19:25:19.815Z,54.82
2019-04-05T19:27:46.140Z,54.60
2019-04-05T19:49:43.075Z,56.26
2019-04-05T19:52:09.398Z,56.25
2019-04-05T19:54:35.732Z,56.24
2019-04-05T19:57:02.035Z,56.51
2019-04-05T19:59:28.387Z,56.67
2019-04-05T20:01:54.740Z,56.90
2019-04-05T20:04:21.010Z,56.69
2019-04-05T20:06:57.895Z,56.88
2019-04-05T20:09:13.997Z,57.19
2019-04-05T20:11:40.315Z,57.64
2019-04-05T20:14:06.642Z,58.22
2019-04-05T20:16:32.948Z,58.78
2019-04-05T20:18:59.269Z,59.22
2019-04-05T20:21:25.728Z,59.60
2019-04-05T20:23:52.055Z,60.04
2019-04-05T20:26:18.384Z,60.36
2019-04-05T20:28:44.693Z,60.27
2019-04-05T20:31:11.024Z,60.53
2019-04-05T20:33:37.378Z,60.90
2019-04-05T20:36:03.681Z,60.90
2019-04-05T20:38:30.012Z,61.41
2019-04-05T20:40:56.324Z,61.86
2019-04-05T20:43:22.652Z,62.02
2019-04-05T20:45:48.963Z,62.49
2019-04-05T20:48:15.272Z,62.80
2019-04-05T20:50:41.607Z,62.59
2019-04-05T20:53:07.940Z,62.71
2019-04-05T20:55:34.272Z,62.62
2019-04-05T20:58:00.607Z,62.70
2019-04-05T21:00:26.937Z,63.09
2019-04-05T21:02:53.254Z,63.06
2019-04-05T21:05:25.239Z,62.89
2019-04-05T21:07:45.986Z,62.97
2019-04-05T21:10:12.353Z,63.13
2019-04-05T21:12:38.671Z,63.18
2019-04-05T21:15:04.986Z,63.30
2019-04-05T21:17:31.327Z,63.13
2019-04-05T21:19:57.637Z,63.31
2019-04-05T21:22:23.947Z,63.06
2019-04-05T21:24:50.316Z,63.01
2019-04-05T21:27:16.663Z,62.78
2019-04-05T21:29:42.993Z,62.67
2019-04-05T21:32:09.360Z,62.88
2019-04-05T21:34:35.658Z,62.85
2019-04-05T21:37:01.989Z,62.80
2019-04-05T21:39:28.340Z,62.25
2019-04-05T21:41:54.666Z,61.77
2019-04-05T21:44:21.001Z,61.32
2019-04-05T21:46:47.325Z,60.52
2019-04-05T21:49:13.624Z,60.21
2019-04-05T21:51:39.960Z,60.22
2019-04-05T21:54:06.288Z,60.52
2019-04-05T21:56:32.619Z,60.49
2019-04-05T21:58:58.940Z,60.32
2019-04-05T22:01:25.290Z,59.65
2019-04-05T22:03:51.618Z,59.40
2019-04-05T22:06:17.926Z,59.36
2019-04-05T22:08:44.260Z,59.38
2019-04-05T22:11:10.589Z,59.29
2019-04-05T22:13:36.922Z,59.33
2019-04-05T22:16:03.334Z,59.44
2019-04-05T22:18:29.607Z,59.64
2019-04-05T22:20:55.940Z,59.72
2019-04-05T22:23:22.281Z,59.97
2019-04-05T22:25:48.613Z,59.98
2019-04-05T22:28:14.938Z,60.00
2019-04-05T22:30:41.270Z,60.10
2019-04-05T22:33:07.624Z,60.30
2019-04-05T22:35:33.958Z,60.40
2019-04-05T22:38:00.282Z,60.56
2019-04-05T22:40:26.609Z,60.62
2019-04-05T22:42:52.930Z,61.02
2019-04-05T22:45:19.257Z,61.33
2019-04-05T22:47:45.574Z,61.67
2019-04-05T22:50:11.945Z,61.88
2019-04-05T22:52:38.269Z,62.05
2019-04-05T22:55:11.242Z,62.21
2019-04-05T22:57:30.922Z,62.37
2019-04-05T22:59:57.238Z,62.51
2019-04-05T23:02:23.565Z,62.68
2019-04-05T23:04:49.883Z,63.01
2019-04-05T23:07:16.209Z,63.18
2019-04-05T23:09:42.507Z,63.47
2019-04-05T23:12:08.824Z,63.83
2019-04-05T23:14:35.158Z,64.02
2019-04-05T23:17:01.504Z,64.34
2019-04-05T23:19:27.855Z,64.35
2019-04-05T23:21:54.186Z,64.54
2019-04-05T23:24:20.511Z,64.51
2019-04-05T23:26:46.814Z,64.19
2019-04-05T23:29:13.154Z,64.05
2019-04-05T23:31:39.480Z,64.19
2019-04-05T23:34:05.804Z,64.10
2019-04-05T23:36:32.197Z,64.36
2019-04-05T23:38:58.530Z,64.48
2019-04-05T23:41:24.851Z,64.87
2019-04-05T23:43:51.180Z,65.28
2019-04-05T23:46:17.514Z,65.60
2019-04-05T23:48:43.840Z,65.90
2019-04-05T23:51:10.170Z,66.07
2019-04-05T23:53:36.489Z,66.44
2019-04-05T23:56:02.827Z,66.84
2019-04-05T23:58:29.143Z,67.11
